Olympic Star — WDF3678 — position and weather

sailwx.info

Track history (hours):
 
Tides and Currents Weather Stations Pressure Air Temp Water Temp Dewpoint Dewpoint Depression Visibility Wind Speed Wind Dir Waves Ship Positions

Olympic Star

Owner: Waterways Holdings, Seattle, WA. More information available from US FCC via Universal Licensing System and Coast Guard Vessel Documentation Center.

Last reported at 2017-Dec-17 01:44 UTC. Time now 2017-Dec-17 04:12 UTC.
Position N 47°39' W 122°20'.

Length 26 m; draft 1.5 m.

Type: Passenger vessel. MMSI: 367442780.

Date/timePositionNaut miles runAvg speedWind from/ knotsBaromVisibWave heightAir tempDewpointWater temp
2017-Dec-17 01:44N 47°39' W 122°20'0 0.0
2017-Dec-17 01:30N 47°39' W 122°20'0 0.0
2017-Dec-17 01:00N 47°39' W 122°20'1 1.4
2017-Dec-17 00:30N 47°39' W 122°20'3 5.1
2017-Dec-17 00:00N 47°40' W 122°24'0 0.4
2017-Dec-16 23:30N 47°40' W 122°23'3 0.1
2017-Dec-16 05:41N 47°39' W 122°20'0 0.0
2017-Dec-16 05:12N 47°39' W 122°20'1 4.0
2017-Dec-16 04:58N 47°39' W 122°18'0 0.1
2017-Dec-16 04:25N 47°39' W 122°18'1 3.1
2017-Dec-16 04:00N 47°38' W 122°20'0 0.8
2017-Dec-16 03:30N 47°38' W 122°20'1 2.5
2017-Dec-16 02:59N 47°39' W 122°20'0 0.0
2017-Dec-16 02:30N 47°39' W 122°20'0 0.0
2017-Dec-16 02:00N 47°39' W 122°20'0 0.0
2017-Dec-16 01:30N 47°39' W 122°20'0 0.0
2017-Dec-16 01:00N 47°39' W 122°20'0 0.0
2017-Dec-16 00:30N 47°39' W 122°20'0 0.0
2017-Dec-16 00:00N 47°39' W 122°20'0 0.0
2017-Dec-15 23:30N 47°39' W 122°20'0 0.0
2017-Dec-14 00:57N 47°39' W 122°20'3 4.9
2017-Dec-14 00:27N 47°39' W 122°16'3 6.2
2017-Dec-14 00:00N 47°40' W 122°13'3 6.9
2017-Dec-13 23:31N 47°39' W 122°17'2 4.9
2017-Dec-13 23:01N 47°39' W 122°21'2 3.0
2017-Dec-13 22:30N 47°40' W 122°23'3 5.2
2017-Dec-13 22:00N 47°39' W 122°19'3 6.4
2017-Dec-13 21:29N 47°37' W 122°15'4 7.6
2017-Dec-13 21:01N 47°40' W 122°13'0 0.0
2017-Dec-13 20:31N 47°40' W 122°13'0 0.0
2017-Dec-13 20:01N 47°40' W 122°13'1 2.2
2017-Dec-13 19:30N 47°40' W 122°14'4 7.2
2017-Dec-13 19:00N 47°39' W 122°19'2 0.1
2017-Dec-13 05:06N 47°39' W 122°17'1 8.8
2017-Dec-13 04:59N 47°39' W 122°15'2 4.5
2017-Dec-13 04:30N 47°40' W 122°13'4 6.9
2017-Dec-13 03:58N 47°39' W 122°17'2 4.6
2017-Dec-13 03:30N 47°38' W 122°20'3 4.2
2017-Dec-13 02:54N 47°39' W 122°17'3 8.3
2017-Dec-13 02:30N 47°40' W 122°13'0 0.0
2017-Dec-13 02:00N 47°40' W 122°13'0 0.0
2017-Dec-13 01:30N 47°40' W 122°13'0 0.1
2017-Dec-13 01:00N 47°40' W 122°13'3 6.3
2017-Dec-13 00:30N 47°39' W 122°17'2 4.3
2017-Dec-13 00:00N 47°39' W 122°20'0 0.0
2017-Dec-12 00:18N 47°39' W 122°20'0 0.0
2017-Dec-12 00:00N 47°39' W 122°20'0 0.0
2017-Dec-11 23:30N 47°39' W 122°20'0 0.0
2017-Dec-11 23:00N 47°39' W 122°20'0 0.0
2017-Dec-11 22:30N 47°39' W 122°20'1 1.6
2017-Dec-11 22:00N 47°38' W 122°20'2 4.6
2017-Dec-11 21:30N 47°39' W 122°17'3 6.5
2017-Dec-11 21:00N 47°36' W 122°14'2 4.1
2017-Dec-11 20:30N 47°38' W 122°16'3 5.9
2017-Dec-11 20:00N 47°39' W 122°20'0 0.1
2017-Dec-11 19:30N 47°39' W 122°20'0 0.0
2017-Dec-10 05:41N 47°39' W 122°20'0 0.0
2017-Dec-10 05:30N 47°39' W 122°20'0 0.3
2017-Dec-10 05:00N 47°39' W 122°20'2 3.6
2017-Dec-10 04:30N 47°39' W 122°22'2 4.3
2017-Dec-10 04:00N 47°38' W 122°20'1 1.8
2017-Dec-10 03:30N 47°39' W 122°20'2 3.0
2017-Dec-10 02:46N 47°39' W 122°17'2 5.0
2017-Dec-10 02:23N 47°39' W 122°19'0 0.5
2017-Dec-10 01:50N 47°39' W 122°20'0 0.0
2017-Dec-10 01:25N 47°39' W 122°20'0 0.0
2017-Dec-10 00:59N 47°39' W 122°20'0 0.0
2017-Dec-10 00:30N 47°39' W 122°20'0 0.0
2017-Dec-10 00:00N 47°39' W 122°20'0 0.0
2017-Dec-09 23:28N 47°39' W 122°20'0 0.0
2017-Dec-09 23:00N 47°39' W 122°20'0 0.0
2017-Dec-09 22:30N 47°39' W 122°20'0 0.0
2017-Dec-09 22:00N 47°39' W 122°20'0 0.0
2017-Dec-09 21:30N 47°39' W 122°20'0 0.0
2017-Dec-09 21:00N 47°39' W 122°20'1 1.8
2017-Dec-09 20:31N 47°39' W 122°21'1 2.5
2017-Dec-09 20:00N 47°40' W 122°23'3 5.4
2017-Dec-09 19:30N 47°39' W 122°19'1 1.5
2017-Dec-09 19:00N 47°39' W 122°20'0 0.0
2017-Dec-09 18:30N 47°39' W 122°20'0 0.0
2017-Dec-09 18:00N 47°39' W 122°20'0 0.0
2017-Dec-09 17:30N 47°39' W 122°20'0 0.0
2017-Dec-09 17:01N 47°39' W 122°20'0 0.0
2017-Dec-09 16:30N 47°39' W 122°20'0 0.0
2017-Dec-09 06:03N 47°39' W 122°20'0 0.1
2017-Dec-09 05:39N 47°39' W 122°20'0 1.9
2017-Dec-09 05:30N 47°39' W 122°20'0 1.0
2017-Dec-09 05:01N 47°39' W 122°20'2 4.4
2017-Dec-09 04:30N 47°40' W 122°23'2 4.8
2017-Dec-09 04:00N 47°39' W 122°20'2 3.6
2017-Dec-09 03:25N 47°39' W 122°17'2 4.6
2017-Dec-09 02:59N 47°39' W 122°20'0 0.0
2017-Dec-09 02:30N 47°39' W 122°20'0 0.0
2017-Dec-08 03:38N 47°39' W 122°20'0 0.0
2017-Dec-08 03:30N 47°39' W 122°20'3 4.2
2017-Dec-08 02:47N 47°39' W 122°15'2 2.6
2017-Dec-08 01:57N 47°40' W 122°13'4 8.1
2017-Dec-08 01:30N 47°39' W 122°17'1 2.4
2017-Dec-08 01:00N 47°39' W 122°19'3 7.0
2017-Dec-08 00:31N 47°38' W 122°15'3 5.9
2017-Dec-07 23:59N 47°40' W 122°13'0 0.0
2017-Dec-07 23:31N 47°40' W 122°13'0 0.0
2017-Dec-07 23:01N 47°40' W 122°13'3 5.7
2017-Dec-07 22:27N 47°39' W 122°17'2 4.8
2017-Dec-07 22:01N 47°39' W 122°20'0 0.0
2017-Dec-07 21:30N 47°39' W 122°20'0 0.0
2017-Dec-07 05:49N 47°39' W 122°20'0 0.0
2017-Dec-07 05:30N 47°39' W 122°20'0 0.0
2017-Dec-07 05:00N 47°39' W 122°20'1 1.4
2017-Dec-07 04:30N 47°39' W 122°20'2 3.5
2017-Dec-07 03:59N 47°39' W 122°18'2 4.7
2017-Dec-07 03:30N 47°38' W 122°15'3 5.2
2017-Dec-07 02:58N 47°39' W 122°19'1 1.3
2017-Dec-07 02:19N 47°39' W 122°20'0 0.0
2017-Dec-07 01:54N 47°39' W 122°20'  
Track history (hours):
 
Tides and Currents Weather Stations Pressure Air Temp Water Temp Dewpoint Dewpoint Depression Visibility Wind Speed Wind Dir Waves Ship Positions

Olympic Star

Owner: Waterways Holdings, Seattle, WA. More information available from US FCC via Universal Licensing System and Coast Guard Vessel Documentation Center.

Last reported at 2017-Dec-17 01:44 UTC. Time now 2017-Dec-17 04:12 UTC.
Position N 47°39' W 122°20'.

Length 26 m; draft 1.5 m.

Type: Passenger vessel. MMSI: 367442780.

Date/timePositionNaut miles runAvg speedWind from/ knotsBaromVisibWave heightAir tempDewpointWater temp
2017-Dec-17 01:44N 47°39' W 122°20'0 0.0
2017-Dec-17 01:30N 47°39' W 122°20'0 0.0
2017-Dec-17 01:00N 47°39' W 122°20'1 1.4
2017-Dec-17 00:30N 47°39' W 122°20'3 5.1
2017-Dec-17 00:00N 47°40' W 122°24'0 0.4
2017-Dec-16 23:30N 47°40' W 122°23'3 0.1
2017-Dec-16 05:41N 47°39' W 122°20'0 0.0
2017-Dec-16 05:12N 47°39' W 122°20'1 4.0
2017-Dec-16 04:58N 47°39' W 122°18'0 0.1
2017-Dec-16 04:25N 47°39' W 122°18'1 3.1
2017-Dec-16 04:00N 47°38' W 122°20'0 0.8
2017-Dec-16 03:30N 47°38' W 122°20'1 2.5
2017-Dec-16 02:59N 47°39' W 122°20'0 0.0
2017-Dec-16 02:30N 47°39' W 122°20'0 0.0
2017-Dec-16 02:00N 47°39' W 122°20'0 0.0
2017-Dec-16 01:30N 47°39' W 122°20'0 0.0
2017-Dec-16 01:00N 47°39' W 122°20'0 0.0
2017-Dec-16 00:30N 47°39' W 122°20'0 0.0
2017-Dec-16 00:00N 47°39' W 122°20'0 0.0
2017-Dec-15 23:30N 47°39' W 122°20'0 0.0
2017-Dec-14 00:57N 47°39' W 122°20'3 4.9
2017-Dec-14 00:27N 47°39' W 122°16'3 6.2
2017-Dec-14 00:00N 47°40' W 122°13'3 6.9
2017-Dec-13 23:31N 47°39' W 122°17'2 4.9
2017-Dec-13 23:01N 47°39' W 122°21'2 3.0
2017-Dec-13 22:30N 47°40' W 122°23'3 5.2
2017-Dec-13 22:00N 47°39' W 122°19'3 6.4
2017-Dec-13 21:29N 47°37' W 122°15'4 7.6
2017-Dec-13 21:01N 47°40' W 122°13'0 0.0
2017-Dec-13 20:31N 47°40' W 122°13'0 0.0
2017-Dec-13 20:01N 47°40' W 122°13'1 2.2
2017-Dec-13 19:30N 47°40' W 122°14'4 7.2
2017-Dec-13 19:00N 47°39' W 122°19'2 0.1
2017-Dec-13 05:06N 47°39' W 122°17'1 8.8
2017-Dec-13 04:59N 47°39' W 122°15'2 4.5
2017-Dec-13 04:30N 47°40' W 122°13'4 6.9
2017-Dec-13 03:58N 47°39' W 122°17'2 4.6
2017-Dec-13 03:30N 47°38' W 122°20'3 4.2
2017-Dec-13 02:54N 47°39' W 122°17'3 8.3
2017-Dec-13 02:30N 47°40' W 122°13'0 0.0
2017-Dec-13 02:00N 47°40' W 122°13'0 0.0
2017-Dec-13 01:30N 47°40' W 122°13'0 0.1
2017-Dec-13 01:00N 47°40' W 122°13'3 6.3
2017-Dec-13 00:30N 47°39' W 122°17'2 4.3
2017-Dec-13 00:00N 47°39' W 122°20'0 0.0
2017-Dec-12 00:18N 47°39' W 122°20'0 0.0
2017-Dec-12 00:00N 47°39' W 122°20'0 0.0
2017-Dec-11 23:30N 47°39' W 122°20'0 0.0
2017-Dec-11 23:00N 47°39' W 122°20'0 0.0
2017-Dec-11 22:30N 47°39' W 122°20'1 1.6
2017-Dec-11 22:00N 47°38' W 122°20'2 4.6
2017-Dec-11 21:30N 47°39' W 122°17'3 6.5
2017-Dec-11 21:00N 47°36' W 122°14'2 4.1
2017-Dec-11 20:30N 47°38' W 122°16'3 5.9
2017-Dec-11 20:00N 47°39' W 122°20'0 0.1
2017-Dec-11 19:30N 47°39' W 122°20'0 0.0
2017-Dec-10 05:41N 47°39' W 122°20'0 0.0
2017-Dec-10 05:30N 47°39' W 122°20'0 0.3
2017-Dec-10 05:00N 47°39' W 122°20'2 3.6
2017-Dec-10 04:30N 47°39' W 122°22'2 4.3
2017-Dec-10 04:00N 47°38' W 122°20'1 1.8
2017-Dec-10 03:30N 47°39' W 122°20'2 3.0
2017-Dec-10 02:46N 47°39' W 122°17'2 5.0
2017-Dec-10 02:23N 47°39' W 122°19'0 0.5
2017-Dec-10 01:50N 47°39' W 122°20'0 0.0
2017-Dec-10 01:25N 47°39' W 122°20'0 0.0
2017-Dec-10 00:59N 47°39' W 122°20'0 0.0
2017-Dec-10 00:30N 47°39' W 122°20'0 0.0
2017-Dec-10 00:00N 47°39' W 122°20'0 0.0
2017-Dec-09 23:28N 47°39' W 122°20'0 0.0
2017-Dec-09 23:00N 47°39' W 122°20'0 0.0
2017-Dec-09 22:30N 47°39' W 122°20'0 0.0
2017-Dec-09 22:00N 47°39' W 122°20'0 0.0
2017-Dec-09 21:30N 47°39' W 122°20'0 0.0
2017-Dec-09 21:00N 47°39' W 122°20'1 1.8
2017-Dec-09 20:31N 47°39' W 122°21'1 2.5
2017-Dec-09 20:00N 47°40' W 122°23'3 5.4
2017-Dec-09 19:30N 47°39' W 122°19'1 1.5
2017-Dec-09 19:00N 47°39' W 122°20'0 0.0
2017-Dec-09 18:30N 47°39' W 122°20'0 0.0
2017-Dec-09 18:00N 47°39' W 122°20'0 0.0
2017-Dec-09 17:30N 47°39' W 122°20'0 0.0
2017-Dec-09 17:01N 47°39' W 122°20'0 0.0
2017-Dec-09 16:30N 47°39' W 122°20'0 0.0
2017-Dec-09 06:03N 47°39' W 122°20'0 0.1
2017-Dec-09 05:39N 47°39' W 122°20'0 1.9
2017-Dec-09 05:30N 47°39' W 122°20'0 1.0
2017-Dec-09 05:01N 47°39' W 122°20'2 4.4
2017-Dec-09 04:30N 47°40' W 122°23'2 4.8
2017-Dec-09 04:00N 47°39' W 122°20'2 3.6
2017-Dec-09 03:25N 47°39' W 122°17'2 4.6
2017-Dec-09 02:59N 47°39' W 122°20'0 0.0
2017-Dec-09 02:30N 47°39' W 122°20'0 0.0
2017-Dec-08 03:38N 47°39' W 122°20'0 0.0
2017-Dec-08 03:30N 47°39' W 122°20'3 4.2
2017-Dec-08 02:47N 47°39' W 122°15'2 2.6
2017-Dec-08 01:57N 47°40' W 122°13'4 8.1
2017-Dec-08 01:30N 47°39' W 122°17'1 2.4
2017-Dec-08 01:00N 47°39' W 122°19'3 7.0
2017-Dec-08 00:31N 47°38' W 122°15'3 5.9
2017-Dec-07 23:59N 47°40' W 122°13'0 0.0
2017-Dec-07 23:31N 47°40' W 122°13'0 0.0
2017-Dec-07 23:01N 47°40' W 122°13'3 5.7
2017-Dec-07 22:27N 47°39' W 122°17'2 4.8
2017-Dec-07 22:01N 47°39' W 122°20'0 0.0
2017-Dec-07 21:30N 47°39' W 122°20'0 0.0
2017-Dec-07 05:49N 47°39' W 122°20'0 0.0
2017-Dec-07 05:30N 47°39' W 122°20'0 0.0
2017-Dec-07 05:00N 47°39' W 122°20'1 1.4
2017-Dec-07 04:30N 47°39' W 122°20'2 3.5
2017-Dec-07 03:59N 47°39' W 122°18'2 4.7
2017-Dec-07 03:30N 47°38' W 122°15'3 5.2
2017-Dec-07 02:58N 47°39' W 122°19'1 1.3
2017-Dec-07 02:19N 47°39' W 122°20'0 0.0
2017-Dec-07 01:54N 47°39' W 122°20'  

Dump ship's entire track history